Saint-Felicien, Canada
Current Conditions -  °F | °C
As of 6:00 AM on Tuesday 21 Oct 2014 (Local Time) from CYRJ Reporting Station
Few Clouds Few Clouds  
Wind Chill: 21°   Ceiling: Unl
Heat Index: 28°   Visibility: 25mi
Dew Point: 23°   Wind: 7mph
Humidity: 80%   Direction: 280°W
Pressure: 30.06"   Gusts: NA
Location:  48.66°N, 72.45°W
Report Text: CYRJ 211000Z 28006KT 25SM FEW030 FEW100 M02/M05 A3006 RMK SC1AC1 AC TR SLP188
Loading
Personal Weather Stations






























Interactive Weather Map
Tropical Storm Tracking
New forecast layout! Learn more

10-Day Weather Forecast

Advertisements
Track Severe Weather on mobile